sensor_id;sensor_type;location;lat;lon;timestamp;P1;durP1;ratioP1;P2;durP2;ratioP2
23470;SDS011;11908;50.806;4.424;2023-06-04T00:02:23;2.80;;;1.17;;
23470;SDS011;11908;50.806;4.424;2023-06-04T00:04:49;3.50;;;1.67;;
23470;SDS011;11908;50.806;4.424;2023-06-04T00:07:15;4.68;;;1.83;;
23470;SDS011;11908;50.806;4.424;2023-06-04T00:09:40;3.42;;;1.45;;
23470;SDS011;11908;50.806;4.424;2023-06-04T00:12:06;2.10;;;1.30;;
23470;SDS011;11908;50.806;4.424;2023-06-04T00:14:32;2.03;;;1.40;;
23470;SDS011;11908;50.806;4.424;2023-06-04T00:16:58;3.58;;;1.50;;
23470;SDS011;11908;50.806;4.424;2023-06-04T00:19:24;3.92;;;1.60;;
23470;SDS011;11908;50.806;4.424;2023-06-04T00:21:50;7.32;;;1.80;;
23470;SDS011;11908;50.806;4.424;2023-06-04T00:24:15;2.03;;;1.40;;
23470;SDS011;11908;50.806;4.424;2023-06-04T00:26:41;4.30;;;1.50;;
23470;SDS011;11908;50.806;4.424;2023-06-04T00:29:07;5.20;;;2.13;;
23470;SDS011;11908;50.806;4.424;2023-06-04T00:31:33;2.25;;;1.33;;
23470;SDS011;11908;50.806;4.424;2023-06-04T00:33:58;4.15;;;1.30;;
23470;SDS011;11908;50.806;4.424;2023-06-04T00:36:24;3.85;;;1.17;;
23470;SDS011;11908;50.806;4.424;2023-06-04T00:38:50;2.35;;;1.45;;
23470;SDS011;11908;50.806;4.424;2023-06-04T00:41:15;2.78;;;1.77;;
23470;SDS011;11908;50.806;4.424;2023-06-04T00:43:41;2.75;;;1.80;;
23470;SDS011;11908;50.806;4.424;2023-06-04T00:46:10;2.15;;;1.38;;
23470;SDS011;11908;50.806;4.424;2023-06-04T00:48:43;3.65;;;1.60;;
23470;SDS011;11908;50.806;4.424;2023-06-04T00:51:10;3.92;;;2.10;;
23470;SDS011;11908;50.806;4.424;2023-06-04T00:53:36;2.80;;;1.48;;
23470;SDS011;11908;50.806;4.424;2023-06-04T00:56:02;3.80;;;1.38;;
23470;SDS011;11908;50.806;4.424;2023-06-04T00:58:30;3.45;;;1.50;;
23470;SDS011;11908;50.806;4.424;2023-06-04T01:00:56;3.45;;;1.80;;
23470;SDS011;11908;50.806;4.424;2023-06-04T01:03:28;2.80;;;1.42;;
23470;SDS011;11908;50.806;4.424;2023-06-04T01:06:03;2.10;;;1.42;;
23470;SDS011;11908;50.806;4.424;2023-06-04T01:08:46;5.85;;;1.60;;
23470;SDS011;11908;50.806;4.424;2023-06-04T01:11:19;3.97;;;1.90;;
23470;SDS011;11908;50.806;4.424;2023-06-04T01:13:55;3.28;;;1.45;;
23470;SDS011;11908;50.806;4.424;2023-06-04T01:16:21;2.70;;;1.65;;
23470;SDS011;11908;50.806;4.424;2023-06-04T01:18:47;3.45;;;1.60;;
23470;SDS011;11908;50.806;4.424;2023-06-04T01:21:16;5.63;;;2.28;;
23470;SDS011;11908;50.806;4.424;2023-06-04T01:23:50;4.82;;;1.90;;
23470;SDS011;11908;50.806;4.424;2023-06-04T01:26:30;2.78;;;1.70;;
23470;SDS011;11908;50.806;4.424;2023-06-04T01:28:57;4.10;;;1.30;;
23470;SDS011;11908;50.806;4.424;2023-06-04T01:31:24;4.50;;;1.70;;
23470;SDS011;11908;50.806;4.424;2023-06-04T01:33:56;5.55;;;1.90;;
23470;SDS011;11908;50.806;4.424;2023-06-04T01:36:25;2.80;;;1.58;;
23470;SDS011;11908;50.806;4.424;2023-06-04T01:38:51;5.90;;;2.25;;
23470;SDS011;11908;50.806;4.424;2023-06-04T01:41:17;2.30;;;1.75;;
23470;SDS011;11908;50.806;4.424;2023-06-04T01:43:42;3.42;;;1.65;;
23470;SDS011;11908;50.806;4.424;2023-06-04T01:46:08;3.13;;;1.90;;
23470;SDS011;11908;50.806;4.424;2023-06-04T01:48:34;1.70;;;1.40;;
23470;SDS011;11908;50.806;4.424;2023-06-04T01:51:01;2.95;;;1.58;;
23470;SDS011;11908;50.806;4.424;2023-06-04T01:53:27;2.80;;;1.58;;
23470;SDS011;11908;50.806;4.424;2023-06-04T01:55:52;9.82;;;1.90;;
23470;SDS011;11908;50.806;4.424;2023-06-04T01:58:19;5.40;;;1.95;;
23470;SDS011;11908;50.806;4.424;2023-06-04T02:00:51;2.85;;;1.70;;
23470;SDS011;11908;50.806;4.424;2023-06-04T02:03:25;4.93;;;1.60;;
23470;SDS011;11908;50.806;4.424;2023-06-04T02:05:52;2.83;;;1.85;;
23470;SDS011;11908;50.806;4.424;2023-06-04T02:08:18;4.32;;;2.08;;
23470;SDS011;11908;50.806;4.424;2023-06-04T02:10:46;4.95;;;2.33;;
23470;SDS011;11908;50.806;4.424;2023-06-04T02:13:13;5.07;;;2.03;;
23470;SDS011;11908;50.806;4.424;2023-06-04T02:15:40;3.30;;;1.75;;
23470;SDS011;11908;50.806;4.424;2023-06-04T02:18:15;4.15;;;1.65;;
23470;SDS011;11908;50.806;4.424;2023-06-04T02:20:45;5.75;;;2.00;;
23470;SDS011;11908;50.806;4.424;2023-06-04T02:23:12;3.67;;;2.00;;
23470;SDS011;11908;50.806;4.424;2023-06-04T02:25:39;4.07;;;2.00;;
23470;SDS011;11908;50.806;4.424;2023-06-04T02:28:05;7.03;;;1.98;;
23470;SDS011;11908;50.806;4.424;2023-06-04T02:30:31;4.53;;;1.90;;
23470;SDS011;11908;50.806;4.424;2023-06-04T02:32:57;4.35;;;2.50;;
23470;SDS011;11908;50.806;4.424;2023-06-04T02:35:26;6.40;;;2.30;;
23470;SDS011;11908;50.806;4.424;2023-06-04T02:37:55;5.57;;;2.22;;
23470;SDS011;11908;50.806;4.424;2023-06-04T02:40:26;3.80;;;2.00;;
23470;SDS011;11908;50.806;4.424;2023-06-04T02:42:52;4.60;;;1.98;;
23470;SDS011;11908;50.806;4.424;2023-06-04T02:45:18;3.95;;;1.70;;
23470;SDS011;11908;50.806;4.424;2023-06-04T02:47:44;4.38;;;2.25;;
23470;SDS011;11908;50.806;4.424;2023-06-04T02:50:10;5.68;;;2.00;;
23470;SDS011;11908;50.806;4.424;2023-06-04T02:52:38;5.85;;;2.17;;
23470;SDS011;11908;50.806;4.424;2023-06-04T02:55:05;7.30;;;2.25;;
23470;SDS011;11908;50.806;4.424;2023-06-04T02:57:33;5.25;;;2.00;;
23470;SDS011;11908;50.806;4.424;2023-06-04T02:59:59;6.93;;;2.13;;
23470;SDS011;11908;50.806;4.424;2023-06-04T03:02:25;2.85;;;2.00;;
23470;SDS011;11908;50.806;4.424;2023-06-04T03:04:50;6.85;;;2.00;;
23470;SDS011;11908;50.806;4.424;2023-06-04T03:07:17;5.72;;;2.30;;
23470;SDS011;11908;50.806;4.424;2023-06-04T03:09:48;3.58;;;2.25;;
23470;SDS011;11908;50.806;4.424;2023-06-04T03:12:14;4.10;;;2.38;;
23470;SDS011;11908;50.806;4.424;2023-06-04T03:14:40;5.60;;;2.55;;
23470;SDS011;11908;50.806;4.424;2023-06-04T03:17:05;8.27;;;2.80;;
23470;SDS011;11908;50.806;4.424;2023-06-04T03:19:39;5.68;;;2.20;;
23470;SDS011;11908;50.806;4.424;2023-06-04T03:22:07;4.72;;;2.58;;
23470;SDS011;11908;50.806;4.424;2023-06-04T03:24:34;8.30;;;2.65;;
23470;SDS011;11908;50.806;4.424;2023-06-04T03:27:01;7.20;;;2.80;;
23470;SDS011;11908;50.806;4.424;2023-06-04T03:29:28;5.55;;;2.22;;
23470;SDS011;11908;50.806;4.424;2023-06-04T03:31:55;4.20;;;2.10;;
23470;SDS011;11908;50.806;4.424;2023-06-04T03:34:21;4.07;;;2.30;;
23470;SDS011;11908;50.806;4.424;2023-06-04T03:36:50;5.07;;;2.30;;
23470;SDS011;11908;50.806;4.424;2023-06-04T03:39:19;5.47;;;2.35;;
23470;SDS011;11908;50.806;4.424;2023-06-04T03:41:45;4.00;;;2.50;;
23470;SDS011;11908;50.806;4.424;2023-06-04T03:44:17;4.43;;;2.30;;
23470;SDS011;11908;50.806;4.424;2023-06-04T03:46:43;4.30;;;2.40;;
23470;SDS011;11908;50.806;4.424;2023-06-04T03:49:09;4.65;;;2.42;;
23470;SDS011;11908;50.806;4.424;2023-06-04T03:51:38;7.30;;;2.50;;
23470;SDS011;11908;50.806;4.424;2023-06-04T03:54:04;5.20;;;2.35;;
23470;SDS011;11908;50.806;4.424;2023-06-04T03:56:30;8.10;;;2.85;;
23470;SDS011;11908;50.806;4.424;2023-06-04T03:58:56;5.05;;;2.72;;
23470;SDS011;11908;50.806;4.424;2023-06-04T04:01:22;7.55;;;2.90;;
23470;SDS011;11908;50.806;4.424;2023-06-04T04:03:48;4.22;;;2.40;;
23470;SDS011;11908;50.806;4.424;2023-06-04T04:06:14;5.95;;;2.85;;
23470;SDS011;11908;50.806;4.424;2023-06-04T04:08:40;5.60;;;2.90;;
23470;SDS011;11908;50.806;4.424;2023-06-04T04:11:12;4.72;;;2.65;;
23470;SDS011;11908;50.806;4.424;2023-06-04T04:13:38;7.20;;;2.88;;
23470;SDS011;11908;50.806;4.424;2023-06-04T04:16:04;6.43;;;2.65;;
23470;SDS011;11908;50.806;4.424;2023-06-04T04:18:33;3.42;;;2.15;;
23470;SDS011;11908;50.806;4.424;2023-06-04T04:21:00;6.28;;;2.60;;
23470;SDS011;11908;50.806;4.424;2023-06-04T04:23:26;6.25;;;2.58;;
23470;SDS011;11908;50.806;4.424;2023-06-04T04:25:53;4.75;;;2.70;;
23470;SDS011;11908;50.806;4.424;2023-06-04T04:28:21;4.50;;;2.67;;
23470;SDS011;11908;50.806;4.424;2023-06-04T04:30:47;4.43;;;2.72;;
23470;SDS011;11908;50.806;4.424;2023-06-04T04:33:13;5.15;;;2.13;;
23470;SDS011;11908;50.806;4.424;2023-06-04T04:35:42;3.08;;;2.25;;
23470;SDS011;11908;50.806;4.424;2023-06-04T04:38:09;5.50;;;2.38;;
23470;SDS011;11908;50.806;4.424;2023-06-04T04:40:35;3.15;;;2.22;;
23470;SDS011;11908;50.806;4.424;2023-06-04T04:43:02;4.40;;;2.40;;
23470;SDS011;11908;50.806;4.424;2023-06-04T04:45:27;6.07;;;2.97;;
23470;SDS011;11908;50.806;4.424;2023-06-04T04:47:53;5.15;;;2.40;;
23470;SDS011;11908;50.806;4.424;2023-06-04T04:50:18;2.75;;;1.77;;
23470;SDS011;11908;50.806;4.424;2023-06-04T04:52:44;2.92;;;2.13;;
23470;SDS011;11908;50.806;4.424;2023-06-04T04:55:10;6.78;;;2.10;;
23470;SDS011;11908;50.806;4.424;2023-06-04T04:57:38;4.57;;;2.22;;
23470;SDS011;11908;50.806;4.424;2023-06-04T05:00:04;8.38;;;2.42;;
23470;SDS011;11908;50.806;4.424;2023-06-04T05:02:31;5.32;;;2.05;;
23470;SDS011;11908;50.806;4.424;2023-06-04T05:04:57;4.50;;;2.28;;
23470;SDS011;11908;50.806;4.424;2023-06-04T05:07:23;6.65;;;2.35;;
23470;SDS011;11908;50.806;4.424;2023-06-04T05:09:49;5.57;;;2.40;;
23470;SDS011;11908;50.806;4.424;2023-06-04T05:12:15;4.53;;;2.35;;
23470;SDS011;11908;50.806;4.424;2023-06-04T05:14:41;4.28;;;2.10;;
23470;SDS011;11908;50.806;4.424;2023-06-04T05:17:07;3.45;;;2.20;;
23470;SDS011;11908;50.806;4.424;2023-06-04T05:19:34;8.45;;;2.40;;
23470;SDS011;11908;50.806;4.424;2023-06-04T05:22:00;7.15;;;2.47;;
23470;SDS011;11908;50.806;4.424;2023-06-04T05:24:25;3.17;;;1.98;;
23470;SDS011;11908;50.806;4.424;2023-06-04T05:26:51;3.15;;;1.90;;
23470;SDS011;11908;50.806;4.424;2023-06-04T05:29:17;3.50;;;2.42;;
23470;SDS011;11908;50.806;4.424;2023-06-04T05:31:42;4.80;;;2.20;;
23470;SDS011;11908;50.806;4.424;2023-06-04T05:34:08;5.40;;;2.25;;
23470;SDS011;11908;50.806;4.424;2023-06-04T05:36:34;8.10;;;2.05;;
23470;SDS011;11908;50.806;4.424;2023-06-04T05:39:00;8.18;;;2.63;;
23470;SDS011;11908;50.806;4.424;2023-06-04T05:41:26;7.07;;;2.70;;
23470;SDS011;11908;50.806;4.424;2023-06-04T05:43:52;3.17;;;2.10;;
23470;SDS011;11908;50.806;4.424;2023-06-04T05:46:18;5.07;;;2.20;;
23470;SDS011;11908;50.806;4.424;2023-06-04T05:48:44;5.18;;;2.60;;
23470;SDS011;11908;50.806;4.424;2023-06-04T05:51:10;4.53;;;2.17;;
23470;SDS011;11908;50.806;4.424;2023-06-04T05:53:38;5.10;;;2.10;;
23470;SDS011;11908;50.806;4.424;2023-06-04T05:56:04;6.50;;;2.42;;
23470;SDS011;11908;50.806;4.424;2023-06-04T05:58:29;2.83;;;2.20;;
23470;SDS011;11908;50.806;4.424;2023-06-04T06:00:57;3.63;;;1.88;;
23470;SDS011;11908;50.806;4.424;2023-06-04T06:03:23;6.70;;;2.47;;
23470;SDS011;11908;50.806;4.424;2023-06-04T06:05:48;3.45;;;2.00;;
23470;SDS011;11908;50.806;4.424;2023-06-04T06:08:14;7.03;;;2.08;;
23470;SDS011;11908;50.806;4.424;2023-06-04T06:10:40;5.45;;;2.17;;
23470;SDS011;11908;50.806;4.424;2023-06-04T06:13:05;4.45;;;2.63;;
23470;SDS011;11908;50.806;4.424;2023-06-04T06:15:31;5.00;;;2.17;;
23470;SDS011;11908;50.806;4.424;2023-06-04T06:17:58;10.02;;;2.40;;
23470;SDS011;11908;50.806;4.424;2023-06-04T06:20:23;2.85;;;2.22;;
23470;SDS011;11908;50.806;4.424;2023-06-04T06:22:49;5.60;;;2.30;;
23470;SDS011;11908;50.806;4.424;2023-06-04T06:25:15;4.47;;;2.05;;
23470;SDS011;11908;50.806;4.424;2023-06-04T06:27:41;5.90;;;2.15;;
23470;SDS011;11908;50.806;4.424;2023-06-04T06:30:07;5.25;;;2.25;;
23470;SDS011;11908;50.806;4.424;2023-06-04T06:32:34;4.65;;;2.00;;
23470;SDS011;11908;50.806;4.424;2023-06-04T06:35:00;3.83;;;1.88;;
23470;SDS011;11908;50.806;4.424;2023-06-04T06:37:26;3.67;;;2.08;;
23470;SDS011;11908;50.806;4.424;2023-06-04T06:39:52;4.97;;;2.00;;
23470;SDS011;11908;50.806;4.424;2023-06-04T06:42:18;2.88;;;1.83;;
23470;SDS011;11908;50.806;4.424;2023-06-04T06:44:44;3.22;;;2.08;;
23470;SDS011;11908;50.806;4.424;2023-06-04T06:47:10;3.78;;;2.13;;
23470;SDS011;11908;50.806;4.424;2023-06-04T06:49:39;8.80;;;2.15;;
23470;SDS011;11908;50.806;4.424;2023-06-04T06:52:05;3.33;;;2.00;;
23470;SDS011;11908;50.806;4.424;2023-06-04T06:54:31;5.25;;;2.25;;
23470;SDS011;11908;50.806;4.424;2023-06-04T06:56:56;4.15;;;1.80;;
23470;SDS011;11908;50.806;4.424;2023-06-04T06:59:23;8.00;;;2.10;;
23470;SDS011;11908;50.806;4.424;2023-06-04T07:01:49;4.72;;;1.85;;
23470;SDS011;11908;50.806;4.424;2023-06-04T07:04:15;5.10;;;2.22;;
23470;SDS011;11908;50.806;4.424;2023-06-04T07:06:41;2.78;;;1.98;;
23470;SDS011;11908;50.806;4.424;2023-06-04T07:09:07;3.42;;;1.85;;
23470;SDS011;11908;50.806;4.424;2023-06-04T07:11:33;4.25;;;1.73;;
23470;SDS011;11908;50.806;4.424;2023-06-04T07:13:58;3.15;;;1.88;;
23470;SDS011;11908;50.806;4.424;2023-06-04T07:16:26;2.83;;;1.75;;
23470;SDS011;11908;50.806;4.424;2023-06-04T07:18:52;3.45;;;1.73;;
23470;SDS011;11908;50.806;4.424;2023-06-04T07:21:18;6.72;;;1.63;;
23470;SDS011;11908;50.806;4.424;2023-06-04T07:23:44;2.10;;;1.70;;
23470;SDS011;11908;50.806;4.424;2023-06-04T07:26:12;2.75;;;1.80;;
23470;SDS011;11908;50.806;4.424;2023-06-04T07:28:37;4.18;;;1.90;;
23470;SDS011;11908;50.806;4.424;2023-06-04T07:31:03;9.77;;;1.90;;
23470;SDS011;11908;50.806;4.424;2023-06-04T07:33:29;2.38;;;1.63;;
23470;SDS011;11908;50.806;4.424;2023-06-04T07:35:55;2.17;;;1.55;;
23470;SDS011;11908;50.806;4.424;2023-06-04T07:38:20;7.43;;;1.67;;
23470;SDS011;11908;50.806;4.424;2023-06-04T07:40:46;3.35;;;1.70;;
23470;SDS011;11908;50.806;4.424;2023-06-04T07:43:12;5.07;;;1.90;;
23470;SDS011;11908;50.806;4.424;2023-06-04T07:45:38;3.15;;;1.70;;
23470;SDS011;11908;50.806;4.424;2023-06-04T07:48:04;2.95;;;1.60;;
23470;SDS011;11908;50.806;4.424;2023-06-04T07:50:29;5.03;;;1.70;;
23470;SDS011;11908;50.806;4.424;2023-06-04T07:52:55;2.50;;;1.40;;
23470;SDS011;11908;50.806;4.424;2023-06-04T07:55:21;4.40;;;1.75;;
23470;SDS011;11908;50.806;4.424;2023-06-04T07:57:47;4.25;;;1.60;;
23470;SDS011;11908;50.806;4.424;2023-06-04T08:00:13;3.92;;;1.60;;
23470;SDS011;11908;50.806;4.424;2023-06-04T08:02:39;4.10;;;1.42;;
23470;SDS011;11908;50.806;4.424;2023-06-04T08:05:05;3.42;;;1.70;;
23470;SDS011;11908;50.806;4.424;2023-06-04T08:07:31;4.65;;;1.55;;
23470;SDS011;11908;50.806;4.424;2023-06-04T08:09:56;3.42;;;1.30;;
23470;SDS011;11908;50.806;4.424;2023-06-04T08:12:22;4.18;;;1.67;;
23470;SDS011;11908;50.806;4.424;2023-06-04T08:14:48;2.58;;;1.20;;
23470;SDS011;11908;50.806;4.424;2023-06-04T08:17:15;1.73;;;1.40;;
23470;SDS011;11908;50.806;4.424;2023-06-04T08:19:41;3.17;;;1.45;;
23470;SDS011;11908;50.806;4.424;2023-06-04T08:22:07;3.80;;;1.15;;
23470;SDS011;11908;50.806;4.424;2023-06-04T08:24:34;5.97;;;1.23;;
23470;SDS011;11908;50.806;4.424;2023-06-04T08:27:00;3.00;;;1.48;;
23470;SDS011;11908;50.806;4.424;2023-06-04T08:29:25;4.18;;;1.45;;
23470;SDS011;11908;50.806;4.424;2023-06-04T08:31:51;2.47;;;1.20;;
23470;SDS011;11908;50.806;4.424;2023-06-04T08:34:17;3.08;;;1.27;;
23470;SDS011;11908;50.806;4.424;2023-06-04T08:36:42;2.05;;;1.10;;
23470;SDS011;11908;50.806;4.424;2023-06-04T08:39:08;2.03;;;1.27;;
23470;SDS011;11908;50.806;4.424;2023-06-04T08:41:38;2.42;;;1.25;;
23470;SDS011;11908;50.806;4.424;2023-06-04T08:44:09;2.97;;;1.45;;
23470;SDS011;11908;50.806;4.424;2023-06-04T08:46:38;5.45;;;1.50;;
23470;SDS011;11908;50.806;4.424;2023-06-04T08:49:05;3.83;;;1.20;;
23470;SDS011;11908;50.806;4.424;2023-06-04T08:51:32;3.00;;;1.70;;
23470;SDS011;11908;50.806;4.424;2023-06-04T08:53:59;1.83;;;1.20;;
23470;SDS011;11908;50.806;4.424;2023-06-04T08:56:25;3.97;;;1.23;;
23470;SDS011;11908;50.806;4.424;2023-06-04T08:58:55;2.33;;;1.25;;
23470;SDS011;11908;50.806;4.424;2023-06-04T09:01:24;2.17;;;1.33;;
23470;SDS011;11908;50.806;4.424;2023-06-04T09:03:50;4.57;;;1.40;;
23470;SDS011;11908;50.806;4.424;2023-06-04T09:06:16;4.28;;;1.00;;
23470;SDS011;11908;50.806;4.424;2023-06-04T09:08:42;2.38;;;1.30;;
23470;SDS011;11908;50.806;4.424;2023-06-04T09:11:10;4.13;;;1.20;;
23470;SDS011;11908;50.806;4.424;2023-06-04T09:13:38;6.30;;;1.42;;
23470;SDS011;11908;50.806;4.424;2023-06-04T09:16:07;2.97;;;1.35;;
23470;SDS011;11908;50.806;4.424;2023-06-04T09:18:33;4.72;;;1.35;;
23470;SDS011;11908;50.806;4.424;2023-06-04T09:21:08;2.80;;;1.42;;
23470;SDS011;11908;50.806;4.424;2023-06-04T09:23:34;3.58;;;1.20;;
23470;SDS011;11908;50.806;4.424;2023-06-04T09:26:10;9.57;;;1.58;;
23470;SDS011;11908;50.806;4.424;2023-06-04T09:28:39;3.95;;;1.20;;
23470;SDS011;11908;50.806;4.424;2023-06-04T09:31:07;2.92;;;1.58;;
23470;SDS011;11908;50.806;4.424;2023-06-04T09:33:47;3.58;;;1.05;;
23470;SDS011;11908;50.806;4.424;2023-06-04T09:36:14;3.65;;;1.42;;
23470;SDS011;11908;50.806;4.424;2023-06-04T09:38:41;3.67;;;1.60;;
23470;SDS011;11908;50.806;4.424;2023-06-04T09:41:16;4.05;;;1.50;;
23470;SDS011;11908;50.806;4.424;2023-06-04T09:43:46;7.97;;;1.80;;
23470;SDS011;11908;50.806;4.424;2023-06-04T09:46:12;5.70;;;1.55;;
23470;SDS011;11908;50.806;4.424;2023-06-04T09:48:40;2.55;;;1.25;;
23470;SDS011;11908;50.806;4.424;2023-06-04T09:51:10;3.78;;;1.40;;
23470;SDS011;11908;50.806;4.424;2023-06-04T09:53:37;3.47;;;1.23;;
23470;SDS011;11908;50.806;4.424;2023-06-04T09:56:04;8.00;;;1.30;;
23470;SDS011;11908;50.806;4.424;2023-06-04T09:58:31;3.00;;;1.70;;
23470;SDS011;11908;50.806;4.424;2023-06-04T10:00:58;2.85;;;1.17;;
23470;SDS011;11908;50.806;4.424;2023-06-04T10:03:33;2.45;;;1.30;;
23470;SDS011;11908;50.806;4.424;2023-06-04T10:06:01;3.83;;;1.35;;
23470;SDS011;11908;50.806;4.424;2023-06-04T10:08:29;2.95;;;1.50;;
23470;SDS011;11908;50.806;4.424;2023-06-04T10:10:56;8.57;;;1.60;;
23470;SDS011;11908;50.806;4.424;2023-06-04T10:13:27;6.90;;;1.30;;
23470;SDS011;11908;50.806;4.424;2023-06-04T10:16:03;3.60;;;1.38;;
23470;SDS011;11908;50.806;4.424;2023-06-04T10:18:31;4.47;;;1.52;;
23470;SDS011;11908;50.806;4.424;2023-06-04T10:20:58;2.80;;;1.25;;
23470;SDS011;11908;50.806;4.424;2023-06-04T10:23:24;7.28;;;1.58;;
23470;SDS011;11908;50.806;4.424;2023-06-04T10:25:50;6.15;;;1.55;;
23470;SDS011;11908;50.806;4.424;2023-06-04T10:28:20;3.33;;;1.10;;
23470;SDS011;11908;50.806;4.424;2023-06-04T10:30:48;2.63;;;1.40;;
23470;SDS011;11908;50.806;4.424;2023-06-04T10:33:16;3.55;;;1.40;;
23470;SDS011;11908;50.806;4.424;2023-06-04T10:35:49;4.85;;;1.40;;
23470;SDS011;11908;50.806;4.424;2023-06-04T10:38:15;4.30;;;1.35;;
23470;SDS011;11908;50.806;4.424;2023-06-04T10:40:46;2.53;;;1.70;;
23470;SDS011;11908;50.806;4.424;2023-06-04T10:43:12;3.75;;;1.60;;
23470;SDS011;11908;50.806;4.424;2023-06-04T10:45:39;3.22;;;1.30;;
23470;SDS011;11908;50.806;4.424;2023-06-04T10:48:06;3.55;;;1.70;;
23470;SDS011;11908;50.806;4.424;2023-06-04T10:50:33;4.13;;;1.77;;
23470;SDS011;11908;50.806;4.424;2023-06-04T10:53:00;5.70;;;1.48;;
23470;SDS011;11908;50.806;4.424;2023-06-04T10:55:28;5.00;;;1.60;;
23470;SDS011;11908;50.806;4.424;2023-06-04T10:57:57;1.88;;;1.50;;
23470;SDS011;11908;50.806;4.424;2023-06-04T11:00:34;4.35;;;1.30;;
23470;SDS011;11908;50.806;4.424;2023-06-04T11:03:07;2.13;;;1.33;;
23470;SDS011;11908;50.806;4.424;2023-06-04T11:05:44;5.60;;;1.75;;
23470;SDS011;11908;50.806;4.424;2023-06-04T11:08:11;5.22;;;1.48;;
23470;SDS011;11908;50.806;4.424;2023-06-04T11:10:41;5.22;;;0.93;;
23470;SDS011;11908;50.806;4.424;2023-06-04T11:13:08;3.85;;;1.25;;
23470;SDS011;11908;50.806;4.424;2023-06-04T11:15:41;4.45;;;1.23;;
23470;SDS011;11908;50.806;4.424;2023-06-04T11:18:08;6.45;;;1.50;;
23470;SDS011;11908;50.806;4.424;2023-06-04T11:20:38;3.28;;;1.30;;
23470;SDS011;11908;50.806;4.424;2023-06-04T11:23:04;2.40;;;1.25;;
23470;SDS011;11908;50.806;4.424;2023-06-04T11:25:30;3.15;;;1.30;;
23470;SDS011;11908;50.806;4.424;2023-06-04T11:27:58;1.90;;;1.20;;
23470;SDS011;11908;50.806;4.424;2023-06-04T11:30:24;4.18;;;1.40;;
23470;SDS011;11908;50.806;4.424;2023-06-04T11:32:59;6.32;;;1.63;;
23470;SDS011;11908;50.806;4.424;2023-06-04T11:35:26;2.78;;;1.45;;
23470;SDS011;11908;50.806;4.424;2023-06-04T11:37:52;2.47;;;1.40;;
23470;SDS011;11908;50.806;4.424;2023-06-04T11:40:19;4.20;;;1.40;;
23470;SDS011;11908;50.806;4.424;2023-06-04T11:42:48;7.22;;;1.45;;
23470;SDS011;11908;50.806;4.424;2023-06-04T11:45:17;3.13;;;1.23;;
23470;SDS011;11908;50.806;4.424;2023-06-04T11:47:46;2.38;;;1.33;;
23470;SDS011;11908;50.806;4.424;2023-06-04T11:50:13;3.47;;;1.40;;
23470;SDS011;11908;50.806;4.424;2023-06-04T11:52:39;5.38;;;1.23;;
23470;SDS011;11908;50.806;4.424;2023-06-04T11:55:09;4.03;;;1.27;;
23470;SDS011;11908;50.806;4.424;2023-06-04T11:57:36;3.03;;;1.45;;
23470;SDS011;11908;50.806;4.424;2023-06-04T12:00:03;2.97;;;1.30;;
23470;SDS011;11908;50.806;4.424;2023-06-04T12:02:34;2.15;;;1.20;;
23470;SDS011;11908;50.806;4.424;2023-06-04T12:05:10;2.40;;;1.23;;
23470;SDS011;11908;50.806;4.424;2023-06-04T12:07:39;2.53;;;1.35;;
23470;SDS011;11908;50.806;4.424;2023-06-04T12:10:08;2.47;;;1.27;;
23470;SDS011;11908;50.806;4.424;2023-06-04T12:12:34;2.15;;;1.20;;
23470;SDS011;11908;50.806;4.424;2023-06-04T12:15:00;5.38;;;1.50;;
23470;SDS011;11908;50.806;4.424;2023-06-04T12:17:26;4.75;;;1.45;;
23470;SDS011;11908;50.806;4.424;2023-06-04T12:19:52;2.75;;;1.38;;
23470;SDS011;11908;50.806;4.424;2023-06-04T12:22:18;5.95;;;1.42;;
23470;SDS011;11908;50.806;4.424;2023-06-04T12:24:54;7.63;;;1.58;;
23470;SDS011;11908;50.806;4.424;2023-06-04T12:27:22;5.95;;;1.38;;
23470;SDS011;11908;50.806;4.424;2023-06-04T12:32:20;6.32;;;1.48;;
23470;SDS011;11908;50.806;4.424;2023-06-04T12:34:46;3.00;;;1.52;;
23470;SDS011;11908;50.806;4.424;2023-06-04T12:37:13;1.50;;;1.40;;
23470;SDS011;11908;50.806;4.424;2023-06-04T12:39:39;4.45;;;1.23;;
23470;SDS011;11908;50.806;4.424;2023-06-04T12:42:05;3.65;;;1.30;;
23470;SDS011;11908;50.806;4.424;2023-06-04T12:44:33;4.20;;;1.15;;
23470;SDS011;11908;50.806;4.424;2023-06-04T12:47:03;2.95;;;1.27;;
23470;SDS011;11908;50.806;4.424;2023-06-04T12:49:29;4.03;;;1.70;;
23470;SDS011;11908;50.806;4.424;2023-06-04T12:51:55;1.35;;;1.20;;
23470;SDS011;11908;50.806;4.424;2023-06-04T12:54:21;5.82;;;1.42;;
23470;SDS011;11908;50.806;4.424;2023-06-04T12:56:47;9.60;;;1.90;;
23470;SDS011;11908;50.806;4.424;2023-06-04T12:59:13;6.13;;;1.70;;
23470;SDS011;11908;50.806;4.424;2023-06-04T13:01:39;2.83;;;1.52;;
23470;SDS011;11908;50.806;4.424;2023-06-04T13:04:05;2.22;;;1.20;;
23470;SDS011;11908;50.806;4.424;2023-06-04T13:06:33;8.23;;;1.67;;
23470;SDS011;11908;50.806;4.424;2023-06-04T13:09:00;3.33;;;1.40;;
23470;SDS011;11908;50.806;4.424;2023-06-04T13:11:26;1.77;;;1.40;;
23470;SDS011;11908;50.806;4.424;2023-06-04T13:13:52;5.00;;;1.70;;
23470;SDS011;11908;50.806;4.424;2023-06-04T13:16:18;3.47;;;1.30;;
23470;SDS011;11908;50.806;4.424;2023-06-04T13:18:44;3.55;;;1.40;;
23470;SDS011;11908;50.806;4.424;2023-06-04T13:21:09;5.88;;;1.60;;
23470;SDS011;11908;50.806;4.424;2023-06-04T13:23:35;4.68;;;1.40;;
23470;SDS011;11908;50.806;4.424;2023-06-04T13:26:00;4.70;;;1.67;;
23470;SDS011;11908;50.806;4.424;2023-06-04T13:28:26;8.95;;;1.42;;
23470;SDS011;11908;50.806;4.424;2023-06-04T13:30:52;3.35;;;1.40;;
23470;SDS011;11908;50.806;4.424;2023-06-04T13:33:18;4.18;;;1.40;;
23470;SDS011;11908;50.806;4.424;2023-06-04T13:35:45;3.20;;;1.35;;
23470;SDS011;11908;50.806;4.424;2023-06-04T13:38:11;4.20;;;1.38;;
23470;SDS011;11908;50.806;4.424;2023-06-04T13:40:37;4.93;;;1.75;;
23470;SDS011;11908;50.806;4.424;2023-06-04T13:43:04;4.50;;;1.55;;
23470;SDS011;11908;50.806;4.424;2023-06-04T13:45:32;4.60;;;1.98;;
23470;SDS011;11908;50.806;4.424;2023-06-04T13:47:57;2.85;;;1.48;;
23470;SDS011;11908;50.806;4.424;2023-06-04T13:50:30;3.50;;;1.40;;
23470;SDS011;11908;50.806;4.424;2023-06-04T13:52:56;3.25;;;1.40;;
23470;SDS011;11908;50.806;4.424;2023-06-04T13:55:22;6.03;;;1.60;;
23470;SDS011;11908;50.806;4.424;2023-06-04T13:57:48;5.28;;;1.70;;
23470;SDS011;11908;50.806;4.424;2023-06-04T14:00:13;3.58;;;1.45;;
23470;SDS011;11908;50.806;4.424;2023-06-04T14:02:40;1.95;;;1.27;;
23470;SDS011;11908;50.806;4.424;2023-06-04T14:05:06;5.70;;;1.65;;
23470;SDS011;11908;50.806;4.424;2023-06-04T14:07:32;5.38;;;1.40;;
23470;SDS011;11908;50.806;4.424;2023-06-04T14:09:57;6.07;;;2.05;;
23470;SDS011;11908;50.806;4.424;2023-06-04T14:12:23;2.53;;;1.63;;
23470;SDS011;11908;50.806;4.424;2023-06-04T14:14:49;6.63;;;1.40;;
23470;SDS011;11908;50.806;4.424;2023-06-04T14:17:16;3.42;;;1.20;;
23470;SDS011;11908;50.806;4.424;2023-06-04T14:19:42;5.38;;;1.80;;
23470;SDS011;11908;50.806;4.424;2023-06-04T14:22:07;4.20;;;1.33;;
23470;SDS011;11908;50.806;4.424;2023-06-04T14:24:34;4.00;;;1.40;;
23470;SDS011;11908;50.806;4.424;2023-06-04T14:27:00;3.92;;;1.58;;
23470;SDS011;11908;50.806;4.424;2023-06-04T14:29:25;11.32;;;1.73;;
23470;SDS011;11908;50.806;4.424;2023-06-04T14:31:51;3.40;;;1.35;;
23470;SDS011;11908;50.806;4.424;2023-06-04T14:34:17;5.47;;;1.70;;
23470;SDS011;11908;50.806;4.424;2023-06-04T14:36:42;5.55;;;1.65;;
23470;SDS011;11908;50.806;4.424;2023-06-04T14:39:08;4.50;;;1.50;;
23470;SDS011;11908;50.806;4.424;2023-06-04T14:41:34;2.80;;;1.17;;
23470;SDS011;11908;50.806;4.424;2023-06-04T14:43:59;2.90;;;1.20;;
23470;SDS011;11908;50.806;4.424;2023-06-04T14:46:25;1.98;;;1.05;;
23470;SDS011;11908;50.806;4.424;2023-06-04T14:48:51;3.65;;;1.50;;
23470;SDS011;11908;50.806;4.424;2023-06-04T14:51:18;2.30;;;1.42;;